sensor_id;sensor_type;location;lat;lon;timestamp;P1;durP1;ratioP1;P2;durP2;ratioP2
79478;SDS011;68943;49.472;17.970;2023-08-30T00:00:39;24.40;;;7.45;;
79478;SDS011;68943;49.472;17.970;2023-08-30T00:03:05;25.40;;;8.52;;
79478;SDS011;68943;49.472;17.970;2023-08-30T00:05:31;24.83;;;8.38;;
79478;SDS011;68943;49.472;17.970;2023-08-30T00:07:57;23.08;;;8.13;;
79478;SDS011;68943;49.472;17.970;2023-08-30T00:10:23;19.75;;;8.15;;
79478;SDS011;68943;49.472;17.970;2023-08-30T00:12:49;15.10;;;6.88;;
79478;SDS011;68943;49.472;17.970;2023-08-30T00:15:15;22.08;;;7.22;;
79478;SDS011;68943;49.472;17.970;2023-08-30T00:17:42;16.92;;;5.80;;
79478;SDS011;68943;49.472;17.970;2023-08-30T00:20:08;16.42;;;7.40;;
79478;SDS011;68943;49.472;17.970;2023-08-30T00:22:35;14.90;;;6.30;;
79478;SDS011;68943;49.472;17.970;2023-08-30T00:25:01;13.65;;;5.13;;
79478;SDS011;68943;49.472;17.970;2023-08-30T00:27:27;10.80;;;4.75;;
79478;SDS011;68943;49.472;17.970;2023-08-30T00:29:53;10.20;;;3.78;;
79478;SDS011;68943;49.472;17.970;2023-08-30T00:32:19;13.52;;;5.25;;
79478;SDS011;68943;49.472;17.970;2023-08-30T00:34:46;8.38;;;3.63;;
79478;SDS011;68943;49.472;17.970;2023-08-30T00:37:15;13.45;;;4.55;;
79478;SDS011;68943;49.472;17.970;2023-08-30T00:39:41;8.90;;;3.72;;
79478;SDS011;68943;49.472;17.970;2023-08-30T00:42:07;7.30;;;2.97;;
79478;SDS011;68943;49.472;17.970;2023-08-30T00:44:34;4.60;;;2.00;;
79478;SDS011;68943;49.472;17.970;2023-08-30T00:47:00;6.32;;;2.63;;
79478;SDS011;68943;49.472;17.970;2023-08-30T00:49:27;6.38;;;1.95;;
79478;SDS011;68943;49.472;17.970;2023-08-30T00:51:54;4.68;;;2.40;;
79478;SDS011;68943;49.472;17.970;2023-08-30T00:54:20;5.95;;;2.53;;
79478;SDS011;68943;49.472;17.970;2023-08-30T00:56:46;3.47;;;1.52;;
79478;SDS011;68943;49.472;17.970;2023-08-30T00:59:13;5.95;;;1.92;;
79478;SDS011;68943;49.472;17.970;2023-08-30T01:01:39;4.55;;;1.45;;
79478;SDS011;68943;49.472;17.970;2023-08-30T01:04:06;3.88;;;2.15;;
79478;SDS011;68943;49.472;17.970;2023-08-30T01:06:32;4.72;;;1.67;;
79478;SDS011;68943;49.472;17.970;2023-08-30T01:09:00;4.13;;;1.50;;
79478;SDS011;68943;49.472;17.970;2023-08-30T01:11:37;6.68;;;2.63;;
79478;SDS011;68943;49.472;17.970;2023-08-30T01:14:07;8.18;;;3.10;;
79478;SDS011;68943;49.472;17.970;2023-08-30T01:16:35;9.85;;;4.28;;
79478;SDS011;68943;49.472;17.970;2023-08-30T01:26:45;4.55;;;2.50;;
79478;SDS011;68943;49.472;17.970;2023-08-30T01:29:17;5.78;;;2.55;;
79478;SDS011;68943;49.472;17.970;2023-08-30T01:31:45;6.43;;;2.30;;
79478;SDS011;68943;49.472;17.970;2023-08-30T01:34:12;3.45;;;2.03;;
79478;SDS011;68943;49.472;17.970;2023-08-30T01:36:39;5.05;;;1.58;;
79478;SDS011;68943;49.472;17.970;2023-08-30T01:39:07;7.22;;;2.10;;
79478;SDS011;68943;49.472;17.970;2023-08-30T01:41:34;4.85;;;2.30;;
79478;SDS011;68943;49.472;17.970;2023-08-30T01:44:01;3.95;;;1.92;;
79478;SDS011;68943;49.472;17.970;2023-08-30T01:46:29;3.70;;;1.55;;
79478;SDS011;68943;49.472;17.970;2023-08-30T01:48:55;4.60;;;1.73;;
79478;SDS011;68943;49.472;17.970;2023-08-30T01:51:21;2.58;;;1.33;;
79478;SDS011;68943;49.472;17.970;2023-08-30T01:53:48;3.85;;;1.35;;
79478;SDS011;68943;49.472;17.970;2023-08-30T01:56:15;7.20;;;2.33;;
79478;SDS011;68943;49.472;17.970;2023-08-30T01:58:41;3.55;;;1.80;;
79478;SDS011;68943;49.472;17.970;2023-08-30T02:01:07;8.82;;;2.80;;
79478;SDS011;68943;49.472;17.970;2023-08-30T02:03:33;7.10;;;2.63;;
79478;SDS011;68943;49.472;17.970;2023-08-30T02:06:04;7.35;;;2.45;;
79478;SDS011;68943;49.472;17.970;2023-08-30T02:08:38;5.03;;;2.45;;
79478;SDS011;68943;49.472;17.970;2023-08-30T02:11:08;9.18;;;2.75;;
79478;SDS011;68943;49.472;17.970;2023-08-30T02:13:37;4.50;;;2.13;;
79478;SDS011;68943;49.472;17.970;2023-08-30T02:16:04;7.32;;;2.25;;
79478;SDS011;68943;49.472;17.970;2023-08-30T02:18:30;4.72;;;1.70;;
79478;SDS011;68943;49.472;17.970;2023-08-30T02:20:56;6.43;;;2.70;;
79478;SDS011;68943;49.472;17.970;2023-08-30T02:23:26;4.43;;;3.03;;
79478;SDS011;68943;49.472;17.970;2023-08-30T02:25:53;5.75;;;3.05;;
79478;SDS011;68943;49.472;17.970;2023-08-30T02:28:20;5.65;;;2.55;;
79478;SDS011;68943;49.472;17.970;2023-08-30T02:30:47;4.32;;;2.40;;
79478;SDS011;68943;49.472;17.970;2023-08-30T02:33:13;5.78;;;2.75;;
79478;SDS011;68943;49.472;17.970;2023-08-30T02:35:39;3.80;;;1.75;;
79478;SDS011;68943;49.472;17.970;2023-08-30T02:38:05;3.55;;;2.20;;
79478;SDS011;68943;49.472;17.970;2023-08-30T02:40:32;5.68;;;2.00;;
79478;SDS011;68943;49.472;17.970;2023-08-30T02:42:58;4.97;;;2.50;;
79478;SDS011;68943;49.472;17.970;2023-08-30T02:45:24;3.75;;;1.70;;
79478;SDS011;68943;49.472;17.970;2023-08-30T02:47:50;5.57;;;2.53;;
79478;SDS011;68943;49.472;17.970;2023-08-30T02:50:16;4.25;;;1.90;;
79478;SDS011;68943;49.472;17.970;2023-08-30T02:52:42;2.92;;;1.38;;
79478;SDS011;68943;49.472;17.970;2023-08-30T02:55:08;5.43;;;2.33;;
79478;SDS011;68943;49.472;17.970;2023-08-30T02:57:34;8.75;;;2.78;;
79478;SDS011;68943;49.472;17.970;2023-08-30T03:00:00;4.90;;;2.42;;
79478;SDS011;68943;49.472;17.970;2023-08-30T03:02:28;4.03;;;2.05;;
79478;SDS011;68943;49.472;17.970;2023-08-30T03:04:54;6.35;;;2.92;;
79478;SDS011;68943;49.472;17.970;2023-08-30T03:07:20;7.15;;;3.53;;
79478;SDS011;68943;49.472;17.970;2023-08-30T03:09:46;9.40;;;3.30;;
79478;SDS011;68943;49.472;17.970;2023-08-30T03:12:12;5.88;;;3.45;;
79478;SDS011;68943;49.472;17.970;2023-08-30T03:14:38;7.00;;;3.15;;
79478;SDS011;68943;49.472;17.970;2023-08-30T03:17:04;7.20;;;3.60;;
79478;SDS011;68943;49.472;17.970;2023-08-30T03:19:30;8.48;;;3.33;;
79478;SDS011;68943;49.472;17.970;2023-08-30T03:21:56;7.85;;;3.60;;
79478;SDS011;68943;49.472;17.970;2023-08-30T03:24:22;9.35;;;4.82;;
79478;SDS011;68943;49.472;17.970;2023-08-30T03:26:48;9.48;;;4.70;;
79478;SDS011;68943;49.472;17.970;2023-08-30T03:29:14;9.40;;;5.22;;
79478;SDS011;68943;49.472;17.970;2023-08-30T03:31:40;8.20;;;4.43;;
79478;SDS011;68943;49.472;17.970;2023-08-30T03:34:06;8.52;;;3.72;;
79478;SDS011;68943;49.472;17.970;2023-08-30T03:36:32;8.75;;;3.88;;
79478;SDS011;68943;49.472;17.970;2023-08-30T03:38:58;7.90;;;3.33;;
79478;SDS011;68943;49.472;17.970;2023-08-30T03:41:24;8.05;;;4.47;;
79478;SDS011;68943;49.472;17.970;2023-08-30T03:43:50;11.27;;;4.47;;
79478;SDS011;68943;49.472;17.970;2023-08-30T03:46:16;7.93;;;4.15;;
79478;SDS011;68943;49.472;17.970;2023-08-30T03:48:42;9.38;;;4.30;;
79478;SDS011;68943;49.472;17.970;2023-08-30T03:51:08;10.93;;;5.75;;
79478;SDS011;68943;49.472;17.970;2023-08-30T03:53:35;7.78;;;3.75;;
79478;SDS011;68943;49.472;17.970;2023-08-30T03:56:01;8.50;;;4.25;;
79478;SDS011;68943;49.472;17.970;2023-08-30T03:58:30;7.07;;;3.97;;
79478;SDS011;68943;49.472;17.970;2023-08-30T04:00:56;6.43;;;3.22;;
79478;SDS011;68943;49.472;17.970;2023-08-30T04:03:22;6.90;;;3.70;;
79478;SDS011;68943;49.472;17.970;2023-08-30T04:05:54;7.07;;;3.88;;
79478;SDS011;68943;49.472;17.970;2023-08-30T04:08:20;7.50;;;3.33;;
79478;SDS011;68943;49.472;17.970;2023-08-30T04:10:46;7.35;;;3.60;;
79478;SDS011;68943;49.472;17.970;2023-08-30T04:13:14;9.32;;;3.40;;
79478;SDS011;68943;49.472;17.970;2023-08-30T04:15:40;6.22;;;3.25;;
79478;SDS011;68943;49.472;17.970;2023-08-30T04:18:06;5.45;;;2.47;;
79478;SDS011;68943;49.472;17.970;2023-08-30T04:20:32;6.78;;;2.80;;
79478;SDS011;68943;49.472;17.970;2023-08-30T04:22:59;6.78;;;3.22;;
79478;SDS011;68943;49.472;17.970;2023-08-30T04:25:32;6.18;;;2.60;;
79478;SDS011;68943;49.472;17.970;2023-08-30T04:27:59;5.95;;;2.53;;
79478;SDS011;68943;49.472;17.970;2023-08-30T04:30:25;5.25;;;2.95;;
79478;SDS011;68943;49.472;17.970;2023-08-30T04:32:51;3.78;;;2.00;;
79478;SDS011;68943;49.472;17.970;2023-08-30T04:35:17;5.88;;;2.90;;
79478;SDS011;68943;49.472;17.970;2023-08-30T04:37:43;5.15;;;2.50;;
79478;SDS011;68943;49.472;17.970;2023-08-30T04:40:10;4.10;;;2.60;;
79478;SDS011;68943;49.472;17.970;2023-08-30T04:42:36;4.57;;;2.33;;
79478;SDS011;68943;49.472;17.970;2023-08-30T04:45:03;9.20;;;2.13;;
79478;SDS011;68943;49.472;17.970;2023-08-30T04:47:29;5.75;;;2.50;;
79478;SDS011;68943;49.472;17.970;2023-08-30T04:49:56;3.78;;;2.00;;
79478;SDS011;68943;49.472;17.970;2023-08-30T04:52:22;4.38;;;2.20;;
79478;SDS011;68943;49.472;17.970;2023-08-30T04:54:48;3.63;;;1.90;;
79478;SDS011;68943;49.472;17.970;2023-08-30T04:57:15;3.85;;;1.30;;
79478;SDS011;68943;49.472;17.970;2023-08-30T04:59:44;4.25;;;1.52;;
79478;SDS011;68943;49.472;17.970;2023-08-30T05:02:11;4.38;;;1.90;;
79478;SDS011;68943;49.472;17.970;2023-08-30T05:04:37;4.70;;;1.95;;
79478;SDS011;68943;49.472;17.970;2023-08-30T05:07:03;4.68;;;2.05;;
79478;SDS011;68943;49.472;17.970;2023-08-30T05:09:30;3.80;;;1.85;;
79478;SDS011;68943;49.472;17.970;2023-08-30T05:11:57;3.63;;;2.10;;
79478;SDS011;68943;49.472;17.970;2023-08-30T05:14:23;3.67;;;1.70;;
79478;SDS011;68943;49.472;17.970;2023-08-30T05:16:49;4.20;;;2.60;;
79478;SDS011;68943;49.472;17.970;2023-08-30T05:19:15;4.20;;;2.30;;
79478;SDS011;68943;49.472;17.970;2023-08-30T05:21:44;4.55;;;2.28;;
79478;SDS011;68943;49.472;17.970;2023-08-30T05:24:10;4.43;;;2.22;;
79478;SDS011;68943;49.472;17.970;2023-08-30T05:26:36;4.30;;;2.22;;
79478;SDS011;68943;49.472;17.970;2023-08-30T05:29:03;4.85;;;2.20;;
79478;SDS011;68943;49.472;17.970;2023-08-30T05:31:29;4.85;;;2.20;;
79478;SDS011;68943;49.472;17.970;2023-08-30T05:33:55;4.60;;;2.70;;
79478;SDS011;68943;49.472;17.970;2023-08-30T05:36:21;3.85;;;1.70;;
79478;SDS011;68943;49.472;17.970;2023-08-30T05:38:47;4.32;;;2.08;;
79478;SDS011;68943;49.472;17.970;2023-08-30T05:41:13;6.18;;;2.28;;
79478;SDS011;68943;49.472;17.970;2023-08-30T05:43:39;3.75;;;1.95;;
79478;SDS011;68943;49.472;17.970;2023-08-30T05:46:05;2.67;;;1.55;;
79478;SDS011;68943;49.472;17.970;2023-08-30T05:48:37;2.83;;;1.75;;
79478;SDS011;68943;49.472;17.970;2023-08-30T05:51:03;3.72;;;1.70;;
79478;SDS011;68943;49.472;17.970;2023-08-30T05:53:29;1.77;;;1.33;;
79478;SDS011;68943;49.472;17.970;2023-08-30T05:55:56;1.88;;;1.13;;
79478;SDS011;68943;49.472;17.970;2023-08-30T05:58:22;2.65;;;1.70;;
79478;SDS011;68943;49.472;17.970;2023-08-30T06:00:48;2.08;;;1.10;;
79478;SDS011;68943;49.472;17.970;2023-08-30T06:03:15;4.00;;;1.15;;
79478;SDS011;68943;49.472;17.970;2023-08-30T06:05:41;1.63;;;0.60;;
79478;SDS011;68943;49.472;17.970;2023-08-30T06:08:08;1.50;;;0.95;;
79478;SDS011;68943;49.472;17.970;2023-08-30T06:10:35;2.05;;;1.05;;
79478;SDS011;68943;49.472;17.970;2023-08-30T06:13:01;2.22;;;1.30;;
79478;SDS011;68943;49.472;17.970;2023-08-30T06:15:27;2.03;;;1.35;;
79478;SDS011;68943;49.472;17.970;2023-08-30T06:17:53;3.50;;;1.13;;
79478;SDS011;68943;49.472;17.970;2023-08-30T06:20:19;2.40;;;1.20;;
79478;SDS011;68943;49.472;17.970;2023-08-30T06:22:45;2.20;;;1.13;;
79478;SDS011;68943;49.472;17.970;2023-08-30T06:25:11;3.08;;;1.23;;
79478;SDS011;68943;49.472;17.970;2023-08-30T06:27:41;2.38;;;1.52;;
79478;SDS011;68943;49.472;17.970;2023-08-30T06:30:10;1.90;;;0.60;;
79478;SDS011;68943;49.472;17.970;2023-08-30T06:32:38;1.40;;;1.00;;
79478;SDS011;68943;49.472;17.970;2023-08-30T06:35:04;3.33;;;1.13;;
79478;SDS011;68943;49.472;17.970;2023-08-30T06:37:30;1.80;;;0.80;;
79478;SDS011;68943;49.472;17.970;2023-08-30T06:39:56;1.58;;;0.85;;
79478;SDS011;68943;49.472;17.970;2023-08-30T06:42:24;1.40;;;0.50;;
79478;SDS011;68943;49.472;17.970;2023-08-30T06:44:50;1.75;;;0.70;;
79478;SDS011;68943;49.472;17.970;2023-08-30T06:47:16;1.10;;;0.43;;
79478;SDS011;68943;49.472;17.970;2023-08-30T06:49:42;3.20;;;0.57;;
79478;SDS011;68943;49.472;17.970;2023-08-30T06:52:08;2.42;;;1.33;;
79478;SDS011;68943;49.472;17.970;2023-08-30T06:54:34;1.38;;;0.63;;
79478;SDS011;68943;49.472;17.970;2023-08-30T06:57:01;1.50;;;0.75;;
79478;SDS011;68943;49.472;17.970;2023-08-30T06:59:27;2.00;;;0.90;;
79478;SDS011;68943;49.472;17.970;2023-08-30T07:01:54;3.53;;;1.50;;
79478;SDS011;68943;49.472;17.970;2023-08-30T07:04:20;1.73;;;0.63;;
79478;SDS011;68943;49.472;17.970;2023-08-30T07:06:46;1.00;;;0.55;;
79478;SDS011;68943;49.472;17.970;2023-08-30T07:09:12;1.83;;;1.05;;
79478;SDS011;68943;49.472;17.970;2023-08-30T07:11:39;1.35;;;0.45;;
79478;SDS011;68943;49.472;17.970;2023-08-30T07:14:05;3.50;;;0.82;;
79478;SDS011;68943;49.472;17.970;2023-08-30T07:16:32;1.80;;;0.73;;
79478;SDS011;68943;49.472;17.970;2023-08-30T07:18:58;2.13;;;0.52;;
79478;SDS011;68943;49.472;17.970;2023-08-30T07:21:25;5.15;;;1.23;;
79478;SDS011;68943;49.472;17.970;2023-08-30T07:23:51;1.98;;;0.90;;
79478;SDS011;68943;49.472;17.970;2023-08-30T07:26:18;3.20;;;1.25;;
79478;SDS011;68943;49.472;17.970;2023-08-30T07:28:44;2.42;;;1.23;;
79478;SDS011;68943;49.472;17.970;2023-08-30T07:31:10;2.85;;;1.08;;
79478;SDS011;68943;49.472;17.970;2023-08-30T07:33:40;1.23;;;0.65;;
79478;SDS011;68943;49.472;17.970;2023-08-30T07:36:06;1.85;;;1.13;;
79478;SDS011;68943;49.472;17.970;2023-08-30T07:38:33;3.35;;;0.80;;
79478;SDS011;68943;49.472;17.970;2023-08-30T07:43:44;7.50;;;3.58;;
79478;SDS011;68943;49.472;17.970;2023-08-30T07:46:10;1.92;;;0.82;;
79478;SDS011;68943;49.472;17.970;2023-08-30T07:48:36;2.65;;;1.48;;
79478;SDS011;68943;49.472;17.970;2023-08-30T07:51:02;1.00;;;0.82;;
79478;SDS011;68943;49.472;17.970;2023-08-30T07:53:29;1.00;;;0.57;;
79478;SDS011;68943;49.472;17.970;2023-08-30T07:55:55;1.42;;;0.40;;
79478;SDS011;68943;49.472;17.970;2023-08-30T07:58:21;2.78;;;1.27;;
79478;SDS011;68943;49.472;17.970;2023-08-30T08:00:50;4.75;;;4.25;;
79478;SDS011;68943;49.472;17.970;2023-08-30T08:03:16;2.08;;;0.93;;
79478;SDS011;68943;49.472;17.970;2023-08-30T08:05:42;1.08;;;0.40;;
79478;SDS011;68943;49.472;17.970;2023-08-30T08:08:10;2.60;;;0.52;;
79478;SDS011;68943;49.472;17.970;2023-08-30T08:10:36;3.58;;;0.95;;
79478;SDS011;68943;49.472;17.970;2023-08-30T08:13:02;3.17;;;1.33;;
79478;SDS011;68943;49.472;17.970;2023-08-30T08:15:31;2.22;;;1.20;;
79478;SDS011;68943;49.472;17.970;2023-08-30T08:17:58;2.85;;;0.90;;
79478;SDS011;68943;49.472;17.970;2023-08-30T08:20:26;3.28;;;1.08;;
79478;SDS011;68943;49.472;17.970;2023-08-30T08:22:52;2.45;;;0.70;;
79478;SDS011;68943;49.472;17.970;2023-08-30T08:25:18;1.80;;;1.58;;
79478;SDS011;68943;49.472;17.970;2023-08-30T08:27:45;1.23;;;0.50;;
79478;SDS011;68943;49.472;17.970;2023-08-30T08:30:12;2.38;;;0.77;;
79478;SDS011;68943;49.472;17.970;2023-08-30T08:35:41;0.60;;;0.43;;
79478;SDS011;68943;49.472;17.970;2023-08-30T08:38:07;1.13;;;0.43;;
79478;SDS011;68943;49.472;17.970;2023-08-30T08:40:36;1.08;;;0.65;;
79478;SDS011;68943;49.472;17.970;2023-08-30T08:43:03;0.40;;;0.20;;
79478;SDS011;68943;49.472;17.970;2023-08-30T08:45:39;0.52;;;0.35;;
79478;SDS011;68943;49.472;17.970;2023-08-30T08:48:05;1.20;;;0.35;;
79478;SDS011;68943;49.472;17.970;2023-08-30T08:50:32;1.20;;;0.77;;
79478;SDS011;68943;49.472;17.970;2023-08-30T08:52:59;0.43;;;0.35;;
79478;SDS011;68943;49.472;17.970;2023-08-30T08:55:26;1.13;;;0.32;;
79478;SDS011;68943;49.472;17.970;2023-08-30T08:57:53;0.50;;;0.35;;
79478;SDS011;68943;49.472;17.970;2023-08-30T09:00:19;0.85;;;0.43;;
79478;SDS011;68943;49.472;17.970;2023-08-30T09:02:45;0.68;;;0.40;;
79478;SDS011;68943;49.472;17.970;2023-08-30T09:05:11;0.60;;;0.20;;
79478;SDS011;68943;49.472;17.970;2023-08-30T09:07:37;1.45;;;0.45;;
79478;SDS011;68943;49.472;17.970;2023-08-30T09:10:04;0.70;;;0.40;;
79478;SDS011;68943;49.472;17.970;2023-08-30T09:12:33;1.20;;;0.63;;
79478;SDS011;68943;49.472;17.970;2023-08-30T09:15:00;2.40;;;0.63;;
79478;SDS011;68943;49.472;17.970;2023-08-30T09:17:38;0.60;;;0.57;;
79478;SDS011;68943;49.472;17.970;2023-08-30T09:22:39;0.90;;;0.68;;
79478;SDS011;68943;49.472;17.970;2023-08-30T09:25:09;2.38;;;0.10;;
79478;SDS011;68943;49.472;17.970;2023-08-30T09:27:36;0.80;;;0.52;;
79478;SDS011;68943;49.472;17.970;2023-08-30T09:30:07;0.65;;;0.38;;
79478;SDS011;68943;49.472;17.970;2023-08-30T09:32:41;0.85;;;0.85;;
79478;SDS011;68943;49.472;17.970;2023-08-30T09:35:09;0.82;;;0.82;;
79478;SDS011;68943;49.472;17.970;2023-08-30T09:37:35;1.00;;;0.52;;
79478;SDS011;68943;49.472;17.970;2023-08-30T09:40:01;1.02;;;0.40;;
79478;SDS011;68943;49.472;17.970;2023-08-30T09:42:27;0.57;;;0.22;;
79478;SDS011;68943;49.472;17.970;2023-08-30T09:44:54;0.73;;;0.43;;
79478;SDS011;68943;49.472;17.970;2023-08-30T09:47:20;1.58;;;0.63;;
79478;SDS011;68943;49.472;17.970;2023-08-30T09:49:47;1.15;;;0.50;;
79478;SDS011;68943;49.472;17.970;2023-08-30T09:52:15;1.33;;;1.27;;
79478;SDS011;68943;49.472;17.970;2023-08-30T09:54:42;0.80;;;0.63;;
79478;SDS011;68943;49.472;17.970;2023-08-30T09:57:10;1.33;;;1.17;;
79478;SDS011;68943;49.472;17.970;2023-08-30T09:59:36;7.15;;;4.05;;
79478;SDS011;68943;49.472;17.970;2023-08-30T10:02:03;2.60;;;0.75;;
79478;SDS011;68943;49.472;17.970;2023-08-30T10:04:31;1.80;;;1.13;;
79478;SDS011;68943;49.472;17.970;2023-08-30T10:06:58;11.20;;;9.85;;
79478;SDS011;68943;49.472;17.970;2023-08-30T10:09:25;4.70;;;3.92;;
79478;SDS011;68943;49.472;17.970;2023-08-30T10:11:52;10.02;;;8.15;;
79478;SDS011;68943;49.472;17.970;2023-08-30T10:14:18;1.13;;;0.75;;
79478;SDS011;68943;49.472;17.970;2023-08-30T10:16:48;1.50;;;0.43;;
79478;SDS011;68943;49.472;17.970;2023-08-30T10:19:21;1.98;;;0.88;;
79478;SDS011;68943;49.472;17.970;2023-08-30T10:21:52;0.60;;;0.32;;
79478;SDS011;68943;49.472;17.970;2023-08-30T10:24:20;1.92;;;0.68;;
79478;SDS011;68943;49.472;17.970;2023-08-30T10:26:47;1.65;;;0.65;;
79478;SDS011;68943;49.472;17.970;2023-08-30T10:29:14;0.77;;;0.25;;
79478;SDS011;68943;49.472;17.970;2023-08-30T10:31:42;1.40;;;0.45;;
79478;SDS011;68943;49.472;17.970;2023-08-30T10:34:14;2.38;;;0.63;;
79478;SDS011;68943;49.472;17.970;2023-08-30T10:36:41;1.70;;;0.60;;
79478;SDS011;68943;49.472;17.970;2023-08-30T10:39:14;1.73;;;0.80;;
79478;SDS011;68943;49.472;17.970;2023-08-30T10:41:56;1.23;;;0.73;;
79478;SDS011;68943;49.472;17.970;2023-08-30T10:44:22;1.00;;;0.90;;
79478;SDS011;68943;49.472;17.970;2023-08-30T10:46:55;1.33;;;0.50;;
79478;SDS011;68943;49.472;17.970;2023-08-30T10:49:22;0.60;;;0.40;;
79478;SDS011;68943;49.472;17.970;2023-08-30T10:51:57;0.65;;;0.55;;
79478;SDS011;68943;49.472;17.970;2023-08-30T10:54:26;3.58;;;0.47;;
79478;SDS011;68943;49.472;17.970;2023-08-30T10:57:02;1.10;;;0.75;;
79478;SDS011;68943;49.472;17.970;2023-08-30T10:59:31;1.33;;;0.40;;
79478;SDS011;68943;49.472;17.970;2023-08-30T11:02:00;1.20;;;0.40;;
79478;SDS011;68943;49.472;17.970;2023-08-30T11:04:28;0.93;;;0.55;;
79478;SDS011;68943;49.472;17.970;2023-08-30T11:06:54;1.42;;;0.80;;
79478;SDS011;68943;49.472;17.970;2023-08-30T11:09:21;0.52;;;0.20;;
79478;SDS011;68943;49.472;17.970;2023-08-30T11:11:49;0.85;;;0.35;;
79478;SDS011;68943;49.472;17.970;2023-08-30T11:14:16;0.52;;;0.38;;
79478;SDS011;68943;49.472;17.970;2023-08-30T11:16:42;2.22;;;0.35;;
79478;SDS011;68943;49.472;17.970;2023-08-30T11:19:09;0.80;;;0.65;;
79478;SDS011;68943;49.472;17.970;2023-08-30T11:21:38;0.75;;;0.28;;
79478;SDS011;68943;49.472;17.970;2023-08-30T11:24:04;2.25;;;0.43;;
79478;SDS011;68943;49.472;17.970;2023-08-30T11:26:31;0.63;;;0.45;;
79478;SDS011;68943;49.472;17.970;2023-08-30T11:28:57;0.60;;;0.22;;
79478;SDS011;68943;49.472;17.970;2023-08-30T11:31:24;0.98;;;0.20;;
79478;SDS011;68943;49.472;17.970;2023-08-30T11:33:55;0.90;;;0.45;;
79478;SDS011;68943;49.472;17.970;2023-08-30T11:36:22;0.80;;;0.50;;
79478;SDS011;68943;49.472;17.970;2023-08-30T11:38:50;0.77;;;0.35;;
79478;SDS011;68943;49.472;17.970;2023-08-30T11:41:16;0.63;;;0.50;;
79478;SDS011;68943;49.472;17.970;2023-08-30T11:43:45;0.60;;;0.43;;
79478;SDS011;68943;49.472;17.970;2023-08-30T11:46:12;2.75;;;0.43;;
79478;SDS011;68943;49.472;17.970;2023-08-30T11:48:39;0.70;;;0.65;;
79478;SDS011;68943;49.472;17.970;2023-08-30T11:51:07;0.70;;;0.70;;
79478;SDS011;68943;49.472;17.970;2023-08-30T11:53:33;0.63;;;0.35;;
79478;SDS011;68943;49.472;17.970;2023-08-30T11:56:00;1.92;;;0.82;;
79478;SDS011;68943;49.472;17.970;2023-08-30T11:58:26;1.23;;;0.57;;
79478;SDS011;68943;49.472;17.970;2023-08-30T12:00:53;0.93;;;0.55;;
79478;SDS011;68943;49.472;17.970;2023-08-30T12:03:20;2.75;;;1.65;;
79478;SDS011;68943;49.472;17.970;2023-08-30T12:05:47;4.93;;;2.45;;
79478;SDS011;68943;49.472;17.970;2023-08-30T12:08:17;4.57;;;1.27;;
79478;SDS011;68943;49.472;17.970;2023-08-30T12:10:44;1.42;;;0.88;;
79478;SDS011;68943;49.472;17.970;2023-08-30T12:13:19;0.60;;;0.43;;
79478;SDS011;68943;49.472;17.970;2023-08-30T12:15:46;0.82;;;0.50;;
79478;SDS011;68943;49.472;17.970;2023-08-30T12:18:12;0.20;;;0.13;;
79478;SDS011;68943;49.472;17.970;2023-08-30T12:20:38;0.40;;;0.35;;
79478;SDS011;68943;49.472;17.970;2023-08-30T12:23:04;1.35;;;0.65;;
79478;SDS011;68943;49.472;17.970;2023-08-30T12:25:30;0.68;;;0.43;;
79478;SDS011;68943;49.472;17.970;2023-08-30T12:31:02;1.30;;;0.65;;
79478;SDS011;68943;49.472;17.970;2023-08-30T12:33:32;0.70;;;0.55;;
79478;SDS011;68943;49.472;17.970;2023-08-30T12:35:59;0.63;;;0.45;;
79478;SDS011;68943;49.472;17.970;2023-08-30T12:38:33;0.82;;;0.30;;
79478;SDS011;68943;49.472;17.970;2023-08-30T12:43:26;0.60;;;0.32;;
79478;SDS011;68943;49.472;17.970;2023-08-30T12:45:52;1.35;;;0.40;;
79478;SDS011;68943;49.472;17.970;2023-08-30T12:48:18;0.55;;;0.43;;
79478;SDS011;68943;49.472;17.970;2023-08-30T12:50:46;0.57;;;0.57;;
79478;SDS011;68943;49.472;17.970;2023-08-30T12:53:15;2.20;;;0.32;;
79478;SDS011;68943;49.472;17.970;2023-08-30T12:55:44;0.98;;;0.40;;
79478;SDS011;68943;49.472;17.970;2023-08-30T12:58:10;1.67;;;0.10;;
79478;SDS011;68943;49.472;17.970;2023-08-30T13:00:37;0.60;;;0.55;;
79478;SDS011;68943;49.472;17.970;2023-08-30T13:03:06;1.00;;;0.45;;
79478;SDS011;68943;49.472;17.970;2023-08-30T13:05:33;0.85;;;0.50;;
79478;SDS011;68943;49.472;17.970;2023-08-30T13:07:59;0.55;;;0.43;;
79478;SDS011;68943;49.472;17.970;2023-08-30T13:10:25;0.57;;;0.40;;
79478;SDS011;68943;49.472;17.970;2023-08-30T13:12:51;0.90;;;0.38;;
79478;SDS011;68943;49.472;17.970;2023-08-30T13:15:18;0.88;;;0.88;;
79478;SDS011;68943;49.472;17.970;2023-08-30T13:17:44;0.55;;;0.20;;
79478;SDS011;68943;49.472;17.970;2023-08-30T13:20:10;0.50;;;0.40;;
79478;SDS011;68943;49.472;17.970;2023-08-30T13:22:36;0.75;;;0.35;;
79478;SDS011;68943;49.472;17.970;2023-08-30T13:25:02;0.55;;;0.40;;
79478;SDS011;68943;49.472;17.970;2023-08-30T13:27:29;0.90;;;0.43;;
79478;SDS011;68943;49.472;17.970;2023-08-30T13:29:55;0.70;;;0.52;;
79478;SDS011;68943;49.472;17.970;2023-08-30T13:32:21;2.25;;;0.88;;
79478;SDS011;68943;49.472;17.970;2023-08-30T13:34:49;1.75;;;0.38;;
79478;SDS011;68943;49.472;17.970;2023-08-30T13:37:15;1.65;;;0.82;;
79478;SDS011;68943;49.472;17.970;2023-08-30T13:39:41;2.05;;;0.43;;
79478;SDS011;68943;49.472;17.970;2023-08-30T13:42:07;0.52;;;0.43;;
79478;SDS011;68943;49.472;17.970;2023-08-30T13:44:34;2.00;;;0.50;;
79478;SDS011;68943;49.472;17.970;2023-08-30T13:47:05;1.20;;;1.10;;
79478;SDS011;68943;49.472;17.970;2023-08-30T13:49:31;0.52;;;0.28;;
79478;SDS011;68943;49.472;17.970;2023-08-30T13:51:58;0.77;;;0.57;;
79478;SDS011;68943;49.472;17.970;2023-08-30T13:54:24;0.88;;;0.88;;
79478;SDS011;68943;49.472;17.970;2023-08-30T13:56:50;0.57;;;0.45;;
79478;SDS011;68943;49.472;17.970;2023-08-30T13:59:16;0.60;;;0.38;;
79478;SDS011;68943;49.472;17.970;2023-08-30T14:01:42;0.90;;;0.57;;
79478;SDS011;68943;49.472;17.970;2023-08-30T14:04:08;0.70;;;0.43;;
79478;SDS011;68943;49.472;17.970;2023-08-30T14:06:34;5.38;;;1.55;;
79478;SDS011;68943;49.472;17.970;2023-08-30T14:09:01;0.93;;;0.73;;
79478;SDS011;68943;49.472;17.970;2023-08-30T14:11:29;1.65;;;0.60;;
79478;SDS011;68943;49.472;17.970;2023-08-30T14:13:55;1.83;;;1.15;;
79478;SDS011;68943;49.472;17.970;2023-08-30T14:16:22;0.93;;;0.52;;
79478;SDS011;68943;49.472;17.970;2023-08-30T14:18:49;1.27;;;0.95;;
79478;SDS011;68943;49.472;17.970;2023-08-30T14:21:15;2.22;;;0.65;;
79478;SDS011;68943;49.472;17.970;2023-08-30T14:23:47;1.80;;;0.45;;
79478;SDS011;68943;49.472;17.970;2023-08-30T14:26:14;2.20;;;0.50;;
79478;SDS011;68943;49.472;17.970;2023-08-30T14:28:40;2.45;;;0.82;;
79478;SDS011;68943;49.472;17.970;2023-08-30T14:31:07;0.75;;;0.40;;
79478;SDS011;68943;49.472;17.970;2023-08-30T14:33:33;1.25;;;0.38;;
79478;SDS011;68943;49.472;17.970;2023-08-30T14:35:59;1.35;;;0.43;;
79478;SDS011;68943;49.472;17.970;2023-08-30T14:38:30;1.90;;;0.52;;
79478;SDS011;68943;49.472;17.970;2023-08-30T14:40:56;1.38;;;0.52;;
79478;SDS011;68943;49.472;17.970;2023-08-30T14:43:22;1.52;;;0.50;;
79478;SDS011;68943;49.472;17.970;2023-08-30T14:45:49;1.27;;;0.43;;
79478;SDS011;68943;49.472;17.970;2023-08-30T14:48:15;1.33;;;0.52;;
79478;SDS011;68943;49.472;17.970;2023-08-30T14:50:42;1.63;;;0.90;;
79478;SDS011;68943;49.472;17.970;2023-08-30T14:53:09;1.65;;;0.57;;